sensor_id;sensor_type;location;lat;lon;timestamp;pressure;altitude;pressure_sealevel;temperature;humidity
10145;BME280;5113;41.822;23.564;2022-10-17T00:00:23;-11036.22;;;3.69;100.00
10145;BME280;5113;41.822;23.564;2022-10-17T00:03:32;-11037.91;;;3.75;100.00
10145;BME280;5113;41.822;23.564;2022-10-17T00:06:38;-11043.53;;;3.95;100.00
10145;BME280;5113;41.822;23.564;2022-10-17T00:09:44;-11043.94;;;3.96;100.00
10145;BME280;5113;41.822;23.564;2022-10-17T00:12:51;-11039.88;;;3.82;100.00
10145;BME280;5113;41.822;23.564;2022-10-17T00:15:58;-11035.38;;;3.65;100.00
10145;BME280;5113;41.822;23.564;2022-10-17T00:19:05;-11013.50;;;2.86;100.00
10145;BME280;5113;41.822;23.564;2022-10-17T00:22:12;-11004.94;;;2.55;100.00
10145;BME280;5113;41.822;23.564;2022-10-17T00:25:18;-11006.22;;;2.60;100.00
10145;BME280;5113;41.822;23.564;2022-10-17T00:28:24;-11021.63;;;3.16;100.00
10145;BME280;5113;41.822;23.564;2022-10-17T00:31:30;-11018.41;;;3.04;100.00
10145;BME280;5113;41.822;23.564;2022-10-17T00:34:38;-11015.19;;;2.92;100.00
10145;BME280;5113;41.822;23.564;2022-10-17T00:37:44;-11019.41;;;3.08;100.00
10145;BME280;5113;41.822;23.564;2022-10-17T00:40:50;-11006.22;;;2.60;100.00
10145;BME280;5113;41.822;23.564;2022-10-17T00:43:59;-10987.16;;;1.91;100.00
10145;BME280;5113;41.822;23.564;2022-10-17T00:47:09;-11005.22;;;2.56;100.00
10145;BME280;5113;41.822;23.564;2022-10-17T00:50:19;-10992.19;;;2.09;100.00
10145;BME280;5113;41.822;23.564;2022-10-17T00:53:25;-10988.97;;;1.97;100.00
10145;BME280;5113;41.822;23.564;2022-10-17T00:56:32;-11010.69;;;2.76;100.00
10145;BME280;5113;41.822;23.564;2022-10-17T00:59:39;-11022.06;;;3.17;100.00
10145;BME280;5113;41.822;23.564;2022-10-17T01:02:47;-11004.09;;;2.52;100.00
10145;BME280;5113;41.822;23.564;2022-10-17T01:05:55;-11005.94;;;2.59;100.00
10145;BME280;5113;41.822;23.564;2022-10-17T01:09:02;-11017.28;;;3.00;100.00
10145;BME280;5113;41.822;23.564;2022-10-17T01:12:14;-11020.66;;;3.12;100.00
10145;BME280;5113;41.822;23.564;2022-10-17T01:15:31;-11013.09;;;2.85;100.00
10145;BME280;5113;41.822;23.564;2022-10-17T01:18:50;-11010.97;;;2.77;100.00
10145;BME280;5113;41.822;23.564;2022-10-17T01:22:08;-11020.38;;;3.11;100.00
10145;BME280;5113;41.822;23.564;2022-10-17T01:25:26;-10995.56;;;2.21;100.00
10145;BME280;5113;41.822;23.564;2022-10-17T01:28:55;-11020.09;;;3.10;100.00
10145;BME280;5113;41.822;23.564;2022-10-17T01:32:13;-11027.81;;;3.38;100.00
10145;BME280;5113;41.822;23.564;2022-10-17T01:35:25;-11024.31;;;3.25;100.00
10145;BME280;5113;41.822;23.564;2022-10-17T01:38:35;-11025.00;;;3.28;100.00
10145;BME280;5113;41.822;23.564;2022-10-17T01:41:45;-11020.09;;;3.10;100.00
10145;BME280;5113;41.822;23.564;2022-10-17T01:44:57;-11005.50;;;2.57;100.00
10145;BME280;5113;41.822;23.564;2022-10-17T01:48:11;-10989.25;;;1.98;100.00
10145;BME280;5113;41.822;23.564;2022-10-17T01:51:22;-10976.63;;;1.53;100.00
10145;BME280;5113;41.822;23.564;2022-10-17T01:54:34;-10983.63;;;1.78;100.00
10145;BME280;5113;41.822;23.564;2022-10-17T01:57:46;-11001.88;;;2.44;100.00
10145;BME280;5113;41.822;23.564;2022-10-17T02:00:55;-10981.13;;;1.69;100.00
10145;BME280;5113;41.822;23.564;2022-10-17T02:04:06;-10971.88;;;1.36;100.00
10145;BME280;5113;41.822;23.564;2022-10-17T02:07:15;-10977.19;;;1.55;100.00
10145;BME280;5113;41.822;23.564;2022-10-17T02:10:29;-10967.66;;;1.20;100.00
10145;BME280;5113;41.822;23.564;2022-10-17T02:13:49;-10976.22;;;1.51;100.00
10145;BME280;5113;41.822;23.564;2022-10-17T02:17:09;-10982.09;;;1.73;100.00
10145;BME280;5113;41.822;23.564;2022-10-17T02:20:22;-10990.38;;;2.03;100.00
10145;BME280;5113;41.822;23.564;2022-10-17T02:23:36;-11001.59;;;2.43;100.00
10145;BME280;5113;41.822;23.564;2022-10-17T02:26:46;-10975.50;;;1.49;100.00
10145;BME280;5113;41.822;23.564;2022-10-17T02:30:02;-10970.19;;;1.29;100.00
10145;BME280;5113;41.822;23.564;2022-10-17T02:33:13;-10973.97;;;1.43;100.00
10145;BME280;5113;41.822;23.564;2022-10-17T02:36:27;-10994.44;;;2.17;100.00
10145;BME280;5113;41.822;23.564;2022-10-17T02:39:36;-10999.63;;;2.36;100.00
10145;BME280;5113;41.822;23.564;2022-10-17T02:42:44;-11002.44;;;2.46;100.00
10145;BME280;5113;41.822;23.564;2022-10-17T02:45:50;-11002.72;;;2.47;100.00
10145;BME280;5113;41.822;23.564;2022-10-17T02:49:00;-11011.13;;;2.78;100.00
10145;BME280;5113;41.822;23.564;2022-10-17T02:52:11;-11011.41;;;2.79;100.00
10145;BME280;5113;41.822;23.564;2022-10-17T02:55:23;-10989.09;;;1.98;100.00
10145;BME280;5113;41.822;23.564;2022-10-17T02:58:32;-10987.44;;;1.92;100.00
10145;BME280;5113;41.822;23.564;2022-10-17T03:01:40;-10977.47;;;1.56;100.00
10145;BME280;5113;41.822;23.564;2022-10-17T03:04:47;-10988.41;;;1.95;100.00
10145;BME280;5113;41.822;23.564;2022-10-17T03:07:55;-10988.41;;;1.95;100.00
10145;BME280;5113;41.822;23.564;2022-10-17T03:11:02;-10967.09;;;1.18;100.00
10145;BME280;5113;41.822;23.564;2022-10-17T03:14:08;-10974.38;;;1.45;100.00
10145;BME280;5113;41.822;23.564;2022-10-17T03:17:14;-10967.94;;;1.21;100.00
10145;BME280;5113;41.822;23.564;2022-10-17T03:20:21;-10970.88;;;1.32;100.00
10145;BME280;5113;41.822;23.564;2022-10-17T03:23:28;-10963.59;;;1.06;100.00
10145;BME280;5113;41.822;23.564;2022-10-17T03:26:35;-10975.22;;;1.48;100.00
10145;BME280;5113;41.822;23.564;2022-10-17T03:29:41;-10982.25;;;1.73;100.00
10145;BME280;5113;41.822;23.564;2022-10-17T03:32:47;-10966.81;;;1.17;100.00
10145;BME280;5113;41.822;23.564;2022-10-17T03:35:53;-10952.94;;;0.67;100.00
10145;BME280;5113;41.822;23.564;2022-10-17T03:39:01;-10951.25;;;0.61;100.00
10145;BME280;5113;41.822;23.564;2022-10-17T03:42:07;-10958.41;;;0.87;100.00
10145;BME280;5113;41.822;23.564;2022-10-17T03:45:13;-10972.72;;;1.39;100.00
10145;BME280;5113;41.822;23.564;2022-10-17T03:48:19;-10973.81;;;1.43;100.00
10145;BME280;5113;41.822;23.564;2022-10-17T03:51:25;-10993.31;;;2.13;100.00
10145;BME280;5113;41.822;23.564;2022-10-17T03:54:33;-10988.81;;;1.97;100.00
10145;BME280;5113;41.822;23.564;2022-10-17T03:57:39;-10968.09;;;1.22;100.00
10145;BME280;5113;41.822;23.564;2022-10-17T04:00:48;-10967.09;;;1.18;100.00
10145;BME280;5113;41.822;23.564;2022-10-17T04:03:55;-10950.00;;;0.56;100.00
10145;BME280;5113;41.822;23.564;2022-10-17T04:07:02;-10950.72;;;0.59;100.00
10145;BME280;5113;41.822;23.564;2022-10-17T04:10:10;-10954.63;;;0.73;100.00
10145;BME280;5113;41.822;23.564;2022-10-17T04:13:16;-10968.50;;;1.23;100.00
10145;BME280;5113;41.822;23.564;2022-10-17T04:16:23;-10963.03;;;1.04;100.00
10145;BME280;5113;41.822;23.564;2022-10-17T04:19:29;-10957.44;;;0.83;100.00
10145;BME280;5113;41.822;23.564;2022-10-17T04:22:36;-10950.00;;;0.56;100.00
10145;BME280;5113;41.822;23.564;2022-10-17T04:25:43;-10952.66;;;0.66;100.00
10145;BME280;5113;41.822;23.564;2022-10-17T04:28:50;-10958.69;;;0.88;100.00
10145;BME280;5113;41.822;23.564;2022-10-17T04:31:56;-10978.03;;;1.58;100.00
10145;BME280;5113;41.822;23.564;2022-10-17T04:35:02;-10969.63;;;1.27;100.00
10145;BME280;5113;41.822;23.564;2022-10-17T04:38:09;-10958.97;;;0.89;100.00
10145;BME280;5113;41.822;23.564;2022-10-17T04:41:17;-10969.47;;;1.27;100.00
10145;BME280;5113;41.822;23.564;2022-10-17T04:44:23;-10982.78;;;1.75;100.00
10145;BME280;5113;41.822;23.564;2022-10-17T04:47:29;-10968.78;;;1.24;100.00
10145;BME280;5113;41.822;23.564;2022-10-17T04:50:35;-10962.06;;;1.00;100.00
10145;BME280;5113;41.822;23.564;2022-10-17T04:53:42;-10986.16;;;1.87;100.00
10145;BME280;5113;41.822;23.564;2022-10-17T04:56:50;-10977.75;;;1.57;100.00
10145;BME280;5113;41.822;23.564;2022-10-17T04:59:56;-10968.63;;;1.24;100.00
10145;BME280;5113;41.822;23.564;2022-10-17T05:03:02;-10976.91;;;1.54;100.00
10145;BME280;5113;41.822;23.564;2022-10-17T05:06:11;-11000.31;;;2.39;100.00
10145;BME280;5113;41.822;23.564;2022-10-17T05:09:17;-10991.34;;;2.06;100.00
10145;BME280;5113;41.822;23.564;2022-10-17T05:12:25;-10977.19;;;1.55;100.00
10145;BME280;5113;41.822;23.564;2022-10-17T05:15:32;-10982.38;;;1.74;100.00
10145;BME280;5113;41.822;23.564;2022-10-17T05:18:38;-11005.78;;;2.58;100.00
10145;BME280;5113;41.822;23.564;2022-10-17T05:21:44;-11003.53;;;2.50;100.00
10145;BME280;5113;41.822;23.564;2022-10-17T05:24:51;-11016.16;;;2.96;100.00
10145;BME280;5113;41.822;23.564;2022-10-17T05:27:58;-11011.13;;;2.78;100.00
10145;BME280;5113;41.822;23.564;2022-10-17T05:31:05;-11015.03;;;2.92;100.00
10145;BME280;5113;41.822;23.564;2022-10-17T05:34:12;-11014.75;;;2.91;100.00
10145;BME280;5113;41.822;23.564;2022-10-17T05:37:18;-11022.91;;;3.20;100.00
10145;BME280;5113;41.822;23.564;2022-10-17T05:40:24;-11029.63;;;3.45;100.00
10145;BME280;5113;41.822;23.564;2022-10-17T05:43:32;-11030.34;;;3.47;100.00
10145;BME280;5113;41.822;23.564;2022-10-17T05:46:38;-11032.16;;;3.54;100.00
10145;BME280;5113;41.822;23.564;2022-10-17T05:49:45;-11044.94;;;4.00;100.00
10145;BME280;5113;41.822;23.564;2022-10-17T05:52:56;-11065.56;;;4.75;100.00
10145;BME280;5113;41.822;23.564;2022-10-17T05:56:04;-11053.91;;;4.32;100.00
10145;BME280;5113;41.822;23.564;2022-10-17T05:59:15;-11052.91;;;4.29;100.00
10145;BME280;5113;41.822;23.564;2022-10-17T06:02:21;-11066.53;;;4.78;100.00
10145;BME280;5113;41.822;23.564;2022-10-17T06:05:27;-11055.16;;;4.37;100.00
10145;BME280;5113;41.822;23.564;2022-10-17T06:08:33;-11054.03;;;4.33;100.00
10145;BME280;5113;41.822;23.564;2022-10-17T06:11:40;-11065.00;;;4.73;100.00
10145;BME280;5113;41.822;23.564;2022-10-17T06:14:48;-11070.88;;;4.94;100.00
10145;BME280;5113;41.822;23.564;2022-10-17T06:17:54;-11060.78;;;4.57;100.00
10145;BME280;5113;41.822;23.564;2022-10-17T06:21:04;-11066.53;;;4.78;100.00
10145;BME280;5113;41.822;23.564;2022-10-17T06:24:11;-11075.94;;;5.12;100.00
10145;BME280;5113;41.822;23.564;2022-10-17T06:27:18;-11083.22;;;5.39;100.00
10145;BME280;5113;41.822;23.564;2022-10-17T06:30:25;-11091.53;;;5.69;100.00
10145;BME280;5113;41.822;23.564;2022-10-17T06:33:32;-11088.56;;;5.58;100.00
10145;BME280;5113;41.822;23.564;2022-10-17T06:36:38;-11093.50;;;5.76;100.00
10145;BME280;5113;41.822;23.564;2022-10-17T06:39:44;-11110.34;;;6.37;100.00
10145;BME280;5113;41.822;23.564;2022-10-17T06:42:51;-11114.00;;;6.50;100.00
10145;BME280;5113;41.822;23.564;2022-10-17T06:45:58;-11129.88;;;7.07;100.00
10145;BME280;5113;41.822;23.564;2022-10-17T06:49:04;-11124.81;;;6.89;100.00
10145;BME280;5113;41.822;23.564;2022-10-17T06:52:11;-11109.50;;;6.34;100.00
10145;BME280;5113;41.822;23.564;2022-10-17T06:55:18;-11121.16;;;6.76;100.00
10145;BME280;5113;41.822;23.564;2022-10-17T06:58:27;-11140.13;;;7.44;100.00
10145;BME280;5113;41.822;23.564;2022-10-17T07:01:35;-11145.31;;;7.63;100.00
10145;BME280;5113;41.822;23.564;2022-10-17T07:04:44;-11147.13;;;7.70;100.00
10145;BME280;5113;41.822;23.564;2022-10-17T07:07:50;-11148.69;;;7.75;100.00
10145;BME280;5113;41.822;23.564;2022-10-17T07:10:57;-11147.69;;;7.72;100.00
10145;BME280;5113;41.822;23.564;2022-10-17T07:14:03;-11161.91;;;8.23;99.45
10145;BME280;5113;41.822;23.564;2022-10-17T07:17:10;-11166.97;;;8.41;99.04
10145;BME280;5113;41.822;23.564;2022-10-17T07:20:17;-11163.03;;;8.27;100.00
10145;BME280;5113;41.822;23.564;2022-10-17T07:23:23;-11183.97;;;9.03;99.37
10145;BME280;5113;41.822;23.564;2022-10-17T07:26:29;-11179.59;;;8.87;100.00
10145;BME280;5113;41.822;23.564;2022-10-17T07:29:36;-11184.38;;;9.04;99.20
10145;BME280;5113;41.822;23.564;2022-10-17T07:32:44;-11191.28;;;9.29;97.67
10145;BME280;5113;41.822;23.564;2022-10-17T07:35:50;-11179.88;;;8.88;97.84
10145;BME280;5113;41.822;23.564;2022-10-17T07:38:56;-11192.53;;;9.34;98.20
10145;BME280;5113;41.822;23.564;2022-10-17T07:42:04;-11187.47;;;9.15;98.58
10145;BME280;5113;41.822;23.564;2022-10-17T07:45:11;-11215.59;;;10.17;97.42
10145;BME280;5113;41.822;23.564;2022-10-17T07:48:20;-11223.19;;;10.44;91.39
10145;BME280;5113;41.822;23.564;2022-10-17T07:51:27;-11210.25;;;9.98;95.36
10145;BME280;5113;41.822;23.564;2022-10-17T07:54:33;-11222.78;;;10.43;92.04
10145;BME280;5113;41.822;23.564;2022-10-17T07:57:40;-11217.56;;;10.24;91.92
10145;BME280;5113;41.822;23.564;2022-10-17T08:00:46;-11235.72;;;10.89;86.14
10145;BME280;5113;41.822;23.564;2022-10-17T08:03:56;-11233.03;;;10.80;86.96
10145;BME280;5113;41.822;23.564;2022-10-17T08:07:02;-11251.47;;;11.46;85.84
10145;BME280;5113;41.822;23.564;2022-10-17T08:10:24;-11231.91;;;10.76;82.90
10145;BME280;5113;41.822;23.564;2022-10-17T08:13:33;-11237.28;;;10.95;82.26
10145;BME280;5113;41.822;23.564;2022-10-17T08:16:39;-11267.66;;;12.05;78.10
10145;BME280;5113;41.822;23.564;2022-10-17T08:19:47;-11288.19;;;12.79;74.37
10145;BME280;5113;41.822;23.564;2022-10-17T08:22:53;-11281.72;;;12.55;73.95
10145;BME280;5113;41.822;23.564;2022-10-17T08:26:00;-11283.84;;;12.63;73.18
10145;BME280;5113;41.822;23.564;2022-10-17T08:29:11;-11282.00;;;12.56;71.16
10145;BME280;5113;41.822;23.564;2022-10-17T08:32:18;-11289.19;;;12.82;69.74
10145;BME280;5113;41.822;23.564;2022-10-17T08:35:26;-11290.47;;;12.87;68.43
10145;BME280;5113;41.822;23.564;2022-10-17T08:38:33;-11301.59;;;13.27;67.33
10145;BME280;5113;41.822;23.564;2022-10-17T08:41:54;-11313.56;;;13.70;65.17
10145;BME280;5113;41.822;23.564;2022-10-17T08:45:11;-11318.06;;;13.86;64.60
10145;BME280;5113;41.822;23.564;2022-10-17T08:48:23;-11320.44;;;13.95;63.20
10145;BME280;5113;41.822;23.564;2022-10-17T08:51:34;-11331.56;;;14.35;63.70
10145;BME280;5113;41.822;23.564;2022-10-17T08:54:44;-11326.66;;;14.17;60.90
10145;BME280;5113;41.822;23.564;2022-10-17T08:57:50;-11342.97;;;14.76;64.38
10145;BME280;5113;41.822;23.564;2022-10-17T09:01:02;-11340.88;;;14.69;61.26
10145;BME280;5113;41.822;23.564;2022-10-17T09:04:39;-11359.75;;;15.37;58.73
10145;BME280;5113;41.822;23.564;2022-10-17T09:07:55;-11369.47;;;15.72;56.44
10145;BME280;5113;41.822;23.564;2022-10-17T09:11:12;-11384.81;;;16.27;54.69
10145;BME280;5113;41.822;23.564;2022-10-17T09:17:58;-11392.16;;;16.54;46.58
10145;BME280;5113;41.822;23.564;2022-10-17T09:21:14;-11384.81;;;16.27;45.23
10145;BME280;5113;41.822;23.564;2022-10-17T09:24:33;-11390.75;;;16.48;44.38
10145;BME280;5113;41.822;23.564;2022-10-17T09:27:46;-11377.78;;;16.02;41.96
10145;BME280;5113;41.822;23.564;2022-10-17T09:30:55;-11391.31;;;16.50;40.88
10145;BME280;5113;41.822;23.564;2022-10-17T09:34:04;-11384.69;;;16.27;39.80
10145;BME280;5113;41.822;23.564;2022-10-17T09:37:13;-11398.34;;;16.76;39.46
10145;BME280;5113;41.822;23.564;2022-10-17T09:40:27;-11394.69;;;16.63;37.87
10145;BME280;5113;41.822;23.564;2022-10-17T09:43:37;-11403.44;;;16.94;38.39
10145;BME280;5113;41.822;23.564;2022-10-17T09:47:00;-11408.78;;;17.13;37.70
10145;BME280;5113;41.822;23.564;2022-10-17T09:50:15;-11412.31;;;17.26;36.79
10145;BME280;5113;41.822;23.564;2022-10-17T09:53:32;-11410.06;;;17.18;36.29
10145;BME280;5113;41.822;23.564;2022-10-17T09:56:59;-11421.19;;;17.58;36.83
10145;BME280;5113;41.822;23.564;2022-10-17T10:00:12;-11414.13;;;17.33;35.64
10145;BME280;5113;41.822;23.564;2022-10-17T10:03:25;-11425.56;;;17.74;32.68
10145;BME280;5113;41.822;23.564;2022-10-17T10:06:32;-11433.72;;;18.03;32.28
10145;BME280;5113;41.822;23.564;2022-10-17T10:09:38;-11425.13;;;17.72;32.81
10145;BME280;5113;41.822;23.564;2022-10-17T10:13:01;-11448.94;;;18.58;31.22
10145;BME280;5113;41.822;23.564;2022-10-17T10:16:18;-11436.97;;;18.15;30.08
10145;BME280;5113;41.822;23.564;2022-10-17T10:19:28;-11439.78;;;18.25;28.49
10145;BME280;5113;41.822;23.564;2022-10-17T10:22:35;-11456.16;;;18.84;29.85
10145;BME280;5113;41.822;23.564;2022-10-17T10:25:53;-11457.84;;;18.90;29.90
10145;BME280;5113;41.822;23.564;2022-10-17T10:29:20;-11455.72;;;18.83;30.27
10145;BME280;5113;41.822;23.564;2022-10-17T10:32:29;-11446.00;;;18.47;31.99
10145;BME280;5113;41.822;23.564;2022-10-17T10:35:56;-11443.19;;;18.37;32.85
10145;BME280;5113;41.822;23.564;2022-10-17T10:39:03;-11464.31;;;19.13;31.36
10145;BME280;5113;41.822;23.564;2022-10-17T10:42:19;-11453.03;;;18.73;30.25
10145;BME280;5113;41.822;23.564;2022-10-17T10:45:39;-11450.09;;;18.62;27.25
10145;BME280;5113;41.822;23.564;2022-10-17T10:48:55;-11443.59;;;18.39;27.74
10145;BME280;5113;41.822;23.564;2022-10-17T10:52:04;-11449.94;;;18.62;27.58
10145;BME280;5113;41.822;23.564;2022-10-17T10:55:21;-11470.25;;;19.35;31.09
10145;BME280;5113;41.822;23.564;2022-10-17T10:58:38;-11453.34;;;18.74;31.81
10145;BME280;5113;41.822;23.564;2022-10-17T11:01:52;-11472.22;;;19.42;31.13
10145;BME280;5113;41.822;23.564;2022-10-17T11:05:04;-11467.28;;;19.24;28.19
10145;BME280;5113;41.822;23.564;2022-10-17T11:08:19;-11488.88;;;20.02;29.57
10145;BME280;5113;41.822;23.564;2022-10-17T11:11:31;-11475.06;;;19.52;29.89
10145;BME280;5113;41.822;23.564;2022-10-17T11:14:47;-11456.72;;;18.86;29.76
10145;BME280;5113;41.822;23.564;2022-10-17T11:17:58;-11461.38;;;19.03;30.12
10145;BME280;5113;41.822;23.564;2022-10-17T11:21:11;-11481.53;;;19.75;30.56
10145;BME280;5113;41.822;23.564;2022-10-17T11:24:23;-11479.13;;;19.67;29.36
10145;BME280;5113;41.822;23.564;2022-10-17T11:27:30;-11474.19;;;19.49;28.84
10145;BME280;5113;41.822;23.564;2022-10-17T11:30:45;-11467.44;;;19.25;29.98
10145;BME280;5113;41.822;23.564;2022-10-17T11:33:55;-11490.28;;;20.07;27.95
10145;BME280;5113;41.822;23.564;2022-10-17T11:37:05;-11471.22;;;19.38;28.76
10145;BME280;5113;41.822;23.564;2022-10-17T11:40:16;-11470.81;;;19.37;26.53
10145;BME280;5113;41.822;23.564;2022-10-17T11:43:29;-11494.94;;;20.24;25.81
10145;BME280;5113;41.822;23.564;2022-10-17T11:46:39;-11499.88;;;20.41;25.94
10145;BME280;5113;41.822;23.564;2022-10-17T11:49:52;-11484.06;;;19.85;25.76
10145;BME280;5113;41.822;23.564;2022-10-17T11:53:02;-11503.41;;;20.54;25.43
10145;BME280;5113;41.822;23.564;2022-10-17T11:56:10;-11495.06;;;20.24;26.16
10145;BME280;5113;41.822;23.564;2022-10-17T11:59:39;-11502.00;;;20.49;25.98
10145;BME280;5113;41.822;23.564;2022-10-17T12:03:00;-11484.63;;;19.87;28.09
10145;BME280;5113;41.822;23.564;2022-10-17T12:06:16;-11488.31;;;20.00;27.79
10145;BME280;5113;41.822;23.564;2022-10-17T12:09:31;-11477.16;;;19.60;26.37
10145;BME280;5113;41.822;23.564;2022-10-17T12:12:40;-11483.78;;;19.84;26.06
10145;BME280;5113;41.822;23.564;2022-10-17T12:15:46;-11483.78;;;19.84;25.77
10145;BME280;5113;41.822;23.564;2022-10-17T12:19:23;-11485.19;;;19.89;26.08
10145;BME280;5113;41.822;23.564;2022-10-17T12:22:33;-11495.91;;;20.27;25.50
10145;BME280;5113;41.822;23.564;2022-10-17T12:25:48;-11496.19;;;20.28;27.09
10145;BME280;5113;41.822;23.564;2022-10-17T12:28:55;-11481.66;;;19.76;25.90
10145;BME280;5113;41.822;23.564;2022-10-17T12:32:09;-11484.22;;;19.85;25.99
10145;BME280;5113;41.822;23.564;2022-10-17T12:35:20;-11516.22;;;21.00;25.97
10145;BME280;5113;41.822;23.564;2022-10-17T12:38:28;-11520.75;;;21.17;25.66
10145;BME280;5113;41.822;23.564;2022-10-17T12:41:52;-11498.75;;;20.37;25.57
10145;BME280;5113;41.822;23.564;2022-10-17T12:44:59;-11489.72;;;20.05;25.74
10145;BME280;5113;41.822;23.564;2022-10-17T12:48:08;-11506.06;;;20.64;25.28
10145;BME280;5113;41.822;23.564;2022-10-17T12:51:15;-11513.69;;;20.91;24.47
10145;BME280;5113;41.822;23.564;2022-10-17T12:54:46;-11510.59;;;20.80;25.05
10145;BME280;5113;41.822;23.564;2022-10-17T12:58:15;-11511.44;;;20.83;25.23
10145;BME280;5113;41.822;23.564;2022-10-17T13:01:26;-11539.22;;;21.83;25.81
10145;BME280;5113;41.822;23.564;2022-10-17T13:04:35;-11520.75;;;21.17;25.44
10145;BME280;5113;41.822;23.564;2022-10-17T13:07:43;-11540.22;;;21.87;25.58
10145;BME280;5113;41.822;23.564;2022-10-17T13:10:53;-11535.13;;;21.68;26.28
10145;BME280;5113;41.822;23.564;2022-10-17T13:14:01;-11539.38;;;21.84;26.01
10145;BME280;5113;41.822;23.564;2022-10-17T13:17:20;-11560.53;;;22.60;26.30
10145;BME280;5113;41.822;23.564;2022-10-17T13:20:28;-11565.75;;;22.79;24.12
10145;BME280;5113;41.822;23.564;2022-10-17T13:23:36;-11573.09;;;23.05;23.41
10145;BME280;5113;41.822;23.564;2022-10-17T13:26:45;-11551.50;;;22.27;24.34
10145;BME280;5113;41.822;23.564;2022-10-17T13:29:51;-11544.44;;;22.02;24.81
10145;BME280;5113;41.822;23.564;2022-10-17T13:33:00;-11503.69;;;20.55;25.15
10145;BME280;5113;41.822;23.564;2022-10-17T13:36:12;-11535.28;;;21.69;23.74
10145;BME280;5113;41.822;23.564;2022-10-17T13:39:21;-11553.47;;;22.34;25.28
10145;BME280;5113;41.822;23.564;2022-10-17T13:42:50;-11532.59;;;21.59;27.09
10145;BME280;5113;41.822;23.564;2022-10-17T13:45:59;-11525.25;;;21.33;23.60
10145;BME280;5113;41.822;23.564;2022-10-17T13:49:31;-11535.00;;;21.68;25.17
10145;BME280;5113;41.822;23.564;2022-10-17T13:52:38;-11527.09;;;21.39;24.79
10145;BME280;5113;41.822;23.564;2022-10-17T13:55:58;-11522.03;;;21.21;26.17
10145;BME280;5113;41.822;23.564;2022-10-17T13:59:28;-11490.69;;;20.08;27.31
10145;BME280;5113;41.822;23.564;2022-10-17T14:02:35;-11511.16;;;20.82;25.99
10145;BME280;5113;41.822;23.564;2022-10-17T14:06:06;-11506.94;;;20.67;25.05
10145;BME280;5113;41.822;23.564;2022-10-17T14:09:19;-11507.91;;;20.70;24.44
10145;BME280;5113;41.822;23.564;2022-10-17T14:12:26;-11507.50;;;20.69;24.68
10145;BME280;5113;41.822;23.564;2022-10-17T14:15:35;-11507.06;;;20.67;22.08
10145;BME280;5113;41.822;23.564;2022-10-17T14:18:45;-11501.00;;;20.46;23.79
10145;BME280;5113;41.822;23.564;2022-10-17T14:21:53;-11471.66;;;19.40;23.96
10145;BME280;5113;41.822;23.564;2022-10-17T14:25:01;-11487.31;;;19.96;23.62
10145;BME280;5113;41.822;23.564;2022-10-17T14:28:12;-11471.09;;;19.38;22.95
10145;BME280;5113;41.822;23.564;2022-10-17T14:31:28;-11490.28;;;20.07;24.38
10145;BME280;5113;41.822;23.564;2022-10-17T14:34:38;-11513.41;;;20.90;22.98
10145;BME280;5113;41.822;23.564;2022-10-17T14:37:47;-11496.19;;;20.28;24.17
10145;BME280;5113;41.822;23.564;2022-10-17T14:40:58;-11434.44;;;18.06;25.41
10145;BME280;5113;41.822;23.564;2022-10-17T14:44:28;-11405.69;;;17.02;27.55
10145;BME280;5113;41.822;23.564;2022-10-17T14:47:36;-11402.88;;;16.92;26.66
10145;BME280;5113;41.822;23.564;2022-10-17T14:51:06;-11391.59;;;16.51;28.04
10145;BME280;5113;41.822;23.564;2022-10-17T14:54:18;-11380.31;;;16.11;29.09
10145;BME280;5113;41.822;23.564;2022-10-17T14:57:38;-11381.72;;;16.16;28.50
10145;BME280;5113;41.822;23.564;2022-10-17T15:00:45;-11372.56;;;15.83;28.61
10145;BME280;5113;41.822;23.564;2022-10-17T15:03:53;-11369.47;;;15.72;29.09
10145;BME280;5113;41.822;23.564;2022-10-17T15:06:59;-11366.78;;;15.62;29.31
10145;BME280;5113;41.822;23.564;2022-10-17T15:10:05;-11356.94;;;15.27;31.09
10145;BME280;5113;41.822;23.564;2022-10-17T15:13:12;-11352.84;;;15.12;31.10
10145;BME280;5113;41.822;23.564;2022-10-17T15:16:33;-11347.91;;;14.94;33.43
10145;BME280;5113;41.822;23.564;2022-10-17T15:19:42;-11338.19;;;14.59;34.94
10145;BME280;5113;41.822;23.564;2022-10-17T15:22:48;-11317.78;;;13.85;38.02
10145;BME280;5113;41.822;23.564;2022-10-17T15:25:54;-11300.03;;;13.21;40.33
10145;BME280;5113;41.822;23.564;2022-10-17T15:29:01;-11296.38;;;13.08;40.43
10145;BME280;5113;41.822;23.564;2022-10-17T15:32:07;-11277.09;;;12.39;44.33
10145;BME280;5113;41.822;23.564;2022-10-17T15:35:15;-11269.78;;;12.12;45.47
10145;BME280;5113;41.822;23.564;2022-10-17T15:38:22;-11271.31;;;12.18;45.05
10145;BME280;5113;41.822;23.564;2022-10-17T15:41:29;-11268.50;;;12.08;44.53
10145;BME280;5113;41.822;23.564;2022-10-17T15:44:36;-11269.34;;;12.11;44.33
10145;BME280;5113;41.822;23.564;2022-10-17T15:47:49;-11252.19;;;11.49;47.34
10145;BME280;5113;41.822;23.564;2022-10-17T15:50:56;-11248.53;;;11.36;47.54
10145;BME280;5113;41.822;23.564;2022-10-17T15:54:02;-11249.94;;;11.41;48.11
10145;BME280;5113;41.822;23.564;2022-10-17T15:57:15;-11240.34;;;11.06;48.91
10145;BME280;5113;41.822;23.564;2022-10-17T16:00:23;-11235.59;;;10.89;49.53
10145;BME280;5113;41.822;23.564;2022-10-17T16:03:29;-11238.53;;;11.00;49.23
10145;BME280;5113;41.822;23.564;2022-10-17T16:06:37;-11232.75;;;10.79;50.60
10145;BME280;5113;41.822;23.564;2022-10-17T16:09:43;-11227.97;;;10.62;51.22
10145;BME280;5113;41.822;23.564;2022-10-17T16:12:49;-11222.22;;;10.41;51.38
10145;BME280;5113;41.822;23.564;2022-10-17T16:15:56;-11222.06;;;10.40;51.14
10145;BME280;5113;41.822;23.564;2022-10-17T16:19:02;-11197.31;;;9.51;55.40
10145;BME280;5113;41.822;23.564;2022-10-17T16:22:18;-11194.38;;;9.40;57.46
10145;BME280;5113;41.822;23.564;2022-10-17T16:25:26;-11187.75;;;9.16;59.33
10145;BME280;5113;41.822;23.564;2022-10-17T16:28:33;-11216.72;;;10.21;53.54
10145;BME280;5113;41.822;23.564;2022-10-17T16:31:41;-11201.53;;;9.66;56.56
10145;BME280;5113;41.822;23.564;2022-10-17T16:34:48;-11194.22;;;9.40;58.89
10145;BME280;5113;41.822;23.564;2022-10-17T16:37:55;-11185.50;;;9.08;59.18